createdAt,value
2018-04-27T00:00:27.181Z,2.92
2018-04-27T00:02:53.757Z,6.57
2018-04-27T00:05:20.033Z,3.12
2018-04-27T00:07:46.277Z,4.72
2018-04-27T00:10:12.848Z,3.97
2018-04-27T00:12:39.048Z,4.07
2018-04-27T00:15:05.289Z,2.67
2018-04-27T00:17:31.542Z,2.85
2018-04-27T00:19:57.752Z,2.87
2018-04-27T00:22:24.760Z,3.12
2018-04-27T00:24:50.956Z,6.43
2018-04-27T00:27:17.222Z,3.15
2018-04-27T00:29:43.471Z,3.78
2018-04-27T00:32:09.675Z,3.90
2018-04-27T00:34:35.885Z,3.20
2018-04-27T00:37:02.102Z,3.62
2018-04-27T00:39:28.310Z,2.87
2018-04-27T00:41:54.532Z,3.70
2018-04-27T00:44:27.763Z,4.65
2018-04-27T00:46:54.936Z,3.45
2018-04-27T00:49:21.168Z,3.00
2018-04-27T00:51:47.725Z,3.20
2018-04-27T00:54:13.957Z,3.95
2018-04-27T00:56:40.181Z,3.17
2018-04-27T00:59:06.375Z,3.80
2018-04-27T01:01:32.592Z,3.37
2018-04-27T01:03:58.801Z,3.35
2018-04-27T01:06:25.009Z,3.05
2018-04-27T01:08:51.239Z,3.50
2018-04-27T01:11:17.435Z,3.28
2018-04-27T01:13:43.983Z,3.70
2018-04-27T01:16:10.232Z,3.50
2018-04-27T01:18:36.447Z,3.55
2018-04-27T01:21:02.675Z,4.72
2018-04-27T01:23:28.932Z,3.40
2018-04-27T01:25:55.145Z,2.97
2018-04-27T01:28:21.347Z,4.25
2018-04-27T01:30:47.556Z,5.05
2018-04-27T01:33:13.762Z,3.30
2018-04-27T01:35:40.616Z,3.17
2018-04-27T01:38:08.487Z,4.00
2018-04-27T01:40:37.376Z,3.67
2018-04-27T01:43:04.370Z,3.67
2018-04-27T01:45:32.714Z,6.03
2018-04-27T01:48:00.325Z,3.50
2018-04-27T01:50:27.677Z,4.12
2018-04-27T01:52:53.895Z,4.57
2018-04-27T01:55:20.143Z,3.62
2018-04-27T01:57:46.392Z,5.40
2018-04-27T02:00:12.621Z,3.35
2018-04-27T02:02:38.826Z,4.68
2018-04-27T02:05:05.084Z,5.30
2018-04-27T02:07:31.650Z,3.33
2018-04-27T02:09:57.833Z,3.20
2018-04-27T02:12:24.073Z,4.10
2018-04-27T02:14:50.280Z,3.72
2018-04-27T02:17:16.495Z,3.70
2018-04-27T02:19:43.582Z,3.10
2018-04-27T02:22:09.792Z,3.42
2018-04-27T02:24:36.012Z,3.28
2018-04-27T02:27:02.232Z,4.00
2018-04-27T02:29:28.456Z,3.85
2018-04-27T02:31:54.653Z,4.20
2018-04-27T02:34:20.884Z,3.20
2018-04-27T02:36:47.104Z,4.53
2018-04-27T02:39:13.293Z,3.47
2018-04-27T02:41:39.495Z,3.60
2018-04-27T02:44:05.736Z,3.22
2018-04-27T02:46:31.953Z,3.15
2018-04-27T02:48:58.149Z,4.90
2018-04-27T02:51:24.374Z,4.12
2018-04-27T02:53:50.598Z,3.28
2018-04-27T02:56:16.820Z,2.90
2018-04-27T02:58:43.038Z,3.00
2018-04-27T03:01:09.219Z,2.80
2018-04-27T03:03:35.420Z,3.20
2018-04-27T03:06:01.661Z,6.68
2018-04-27T03:08:27.861Z,3.85
2018-04-27T03:10:54.074Z,3.33
2018-04-27T03:13:20.662Z,7.68
2018-04-27T03:15:46.902Z,4.20
2018-04-27T03:18:13.090Z,4.50
2018-04-27T03:20:39.324Z,3.53
2018-04-27T03:23:05.523Z,3.90
2018-04-27T03:25:31.837Z,3.50
2018-04-27T03:27:58.422Z,3.70
2018-04-27T03:30:24.650Z,3.60
2018-04-27T03:32:51.613Z,3.10
2018-04-27T03:35:17.839Z,3.85
2018-04-27T03:37:44.047Z,4.95
2018-04-27T03:40:10.238Z,4.07
2018-04-27T03:42:36.809Z,3.15
2018-04-27T03:45:03.039Z,6.35
2018-04-27T03:47:29.237Z,3.20
2018-04-27T03:49:55.512Z,2.90
2018-04-27T03:52:21.735Z,4.43
2018-04-27T03:54:47.947Z,3.30
2018-04-27T03:57:14.164Z,4.25
2018-04-27T03:59:52.695Z,3.58
2018-04-27T04:02:31.062Z,3.40
2018-04-27T04:05:09.827Z,3.28
2018-04-27T04:07:36.048Z,3.20
2018-04-27T04:10:02.271Z,4.05
2018-04-27T04:12:28.492Z,4.47
2018-04-27T04:14:54.725Z,3.42
2018-04-27T04:17:20.947Z,4.28
2018-04-27T04:19:47.170Z,4.12
2018-04-27T04:22:13.763Z,4.10
2018-04-27T04:24:39.963Z,4.30
2018-04-27T04:27:06.197Z,5.80
2018-04-27T04:29:32.440Z,4.30
2018-04-27T04:31:58.648Z,5.20
2018-04-27T04:34:24.836Z,4.82
2018-04-27T04:36:51.070Z,6.72
2018-04-27T04:39:18.567Z,3.72
2018-04-27T04:41:44.803Z,3.87
2018-04-27T04:44:11.054Z,4.53
2018-04-27T04:46:37.269Z,4.72
2018-04-27T04:49:03.567Z,4.85
2018-04-27T04:51:29.813Z,4.62
2018-04-27T04:53:56.032Z,4.47
2018-04-27T04:56:22.240Z,5.40
2018-04-27T04:58:48.525Z,4.75
2018-04-27T05:01:14.741Z,4.97
2018-04-27T05:03:40.966Z,4.65
2018-04-27T05:06:07.235Z,7.87
2018-04-27T05:08:33.456Z,4.50
2018-04-27T05:10:59.676Z,4.93
2018-04-27T05:13:25.921Z,4.43
2018-04-27T05:15:52.149Z,4.12
2018-04-27T05:31:42.890Z,3.65
2018-04-27T05:34:09.109Z,5.30
2018-04-27T05:36:35.340Z,4.00
2018-04-27T05:39:01.578Z,3.72
2018-04-27T05:41:27.862Z,4.18
2018-04-27T05:43:54.108Z,6.43
2018-04-27T05:46:20.411Z,4.43
2018-04-27T05:48:46.672Z,3.58
2018-04-27T05:51:12.922Z,4.70
2018-04-27T05:53:39.176Z,3.80
2018-04-27T05:56:05.457Z,3.97
2018-04-27T05:58:31.715Z,6.68
2018-04-27T06:00:57.954Z,4.57
2018-04-27T06:03:24.210Z,4.32
2018-04-27T06:05:51.193Z,6.07
2018-04-27T06:08:17.473Z,4.10
2018-04-27T06:10:43.724Z,5.68
2018-04-27T06:13:10.636Z,4.47
2018-04-27T06:15:36.895Z,6.93
2018-04-27T06:18:03.486Z,4.15
2018-04-27T06:20:29.765Z,4.50
2018-04-27T06:23:02.910Z,4.05
2018-04-27T06:25:29.161Z,4.43
2018-04-27T06:27:55.810Z,5.68
2018-04-27T06:30:22.408Z,5.05
2018-04-27T06:32:48.668Z,3.62
2018-04-27T06:35:15.285Z,5.62
2018-04-27T06:37:41.519Z,5.55
2018-04-27T06:40:08.133Z,5.70
2018-04-27T06:42:34.403Z,3.95
2018-04-27T06:45:01.023Z,4.30
2018-04-27T06:47:27.278Z,3.85
2018-04-27T06:49:53.509Z,5.37
2018-04-27T06:52:19.753Z,4.00
2018-04-27T06:54:45.996Z,4.00
2018-04-27T06:57:12.227Z,6.97
2018-04-27T06:59:38.474Z,3.83
2018-04-27T07:02:04.720Z,4.32
2018-04-27T07:17:16.323Z,5.62
2018-04-27T07:19:42.552Z,5.25
2018-04-27T07:22:08.807Z,3.95
2018-04-27T07:24:35.069Z,4.72
2018-04-27T07:27:01.335Z,4.07
2018-04-27T07:29:27.629Z,4.20
2018-04-27T07:31:53.870Z,6.15
2018-04-27T07:34:20.142Z,4.03
2018-04-27T07:36:46.981Z,3.70
2018-04-27T07:39:13.219Z,5.53
2018-04-27T07:41:39.500Z,4.95
2018-04-27T07:44:06.119Z,6.93
2018-04-27T07:46:32.391Z,3.60
2018-04-27T07:48:58.682Z,3.70
2018-04-27T07:51:25.000Z,4.62
2018-04-27T07:53:51.208Z,3.70
2018-04-27T07:56:17.450Z,4.45
2018-04-27T07:58:43.692Z,3.47
2018-04-27T08:01:09.922Z,3.55
2018-04-27T08:03:36.179Z,3.42
2018-04-27T08:06:02.829Z,4.07
2018-04-27T08:08:29.098Z,4.37
2018-04-27T08:10:55.371Z,4.30
2018-04-27T08:13:21.650Z,5.30
2018-04-27T08:15:47.897Z,4.95
2018-04-27T08:18:14.178Z,5.28
2018-04-27T08:20:40.455Z,4.32
2018-04-27T08:23:06.749Z,5.00
2018-04-27T08:25:34.056Z,4.72
2018-04-27T08:28:00.225Z,3.97
2018-04-27T08:30:27.495Z,4.28
2018-04-27T08:32:53.773Z,6.70
2018-04-27T08:35:20.385Z,9.13
2018-04-27T08:37:46.621Z,4.72
2018-04-27T08:40:12.889Z,4.72
2018-04-27T08:42:39.143Z,6.03
2018-04-27T08:45:06.264Z,5.28
2018-04-27T08:47:32.526Z,4.70
2018-04-27T08:49:58.773Z,6.25
2018-04-27T08:52:25.028Z,6.25
2018-04-27T08:54:51.678Z,6.12
2018-04-27T08:57:17.915Z,5.40
2018-04-27T08:59:44.179Z,6.03
2018-04-27T09:02:10.441Z,5.80
2018-04-27T09:04:36.661Z,7.47
2018-04-27T09:07:02.907Z,10.75
2018-04-27T09:09:29.529Z,5.75
2018-04-27T09:11:55.742Z,5.43
2018-04-27T09:14:22.755Z,4.17
2018-04-27T09:16:49.031Z,5.60
2018-04-27T09:19:15.282Z,7.10
2018-04-27T09:21:41.568Z,5.80
2018-04-27T09:24:07.792Z,5.37
2018-04-27T09:26:34.029Z,5.60
2018-04-27T09:29:00.252Z,4.90
2018-04-27T09:31:26.527Z,5.30
2018-04-27T09:33:53.584Z,5.93
2018-04-27T09:36:20.203Z,6.17
2018-04-27T09:38:46.490Z,4.70
2018-04-27T09:41:12.730Z,4.73
2018-04-27T09:43:38.954Z,5.20
2018-04-27T09:46:05.248Z,5.27
2018-04-27T09:48:31.498Z,4.63
2018-04-27T09:50:57.746Z,4.90
2018-04-27T09:53:23.985Z,5.73
2018-04-27T09:55:50.198Z,4.77
2018-04-27T09:58:16.407Z,5.00
2018-04-27T10:00:42.664Z,6.57
2018-04-27T10:03:08.881Z,5.10
2018-04-27T10:05:35.089Z,6.00
2018-04-27T10:08:01.349Z,5.43
2018-04-27T10:10:34.564Z,5.20
2018-04-27T10:13:01.190Z,5.97
2018-04-27T10:15:27.457Z,4.53
2018-04-27T10:17:53.684Z,6.40
2018-04-27T10:20:19.936Z,5.43
2018-04-27T10:22:46.151Z,6.77
2018-04-27T10:25:12.404Z,5.37
2018-04-27T10:27:38.648Z,6.00
2018-04-27T10:30:04.911Z,7.13
2018-04-27T10:32:31.167Z,7.30
2018-04-27T10:34:57.391Z,6.20
2018-04-27T10:37:23.633Z,5.00
2018-04-27T10:39:49.879Z,5.50
2018-04-27T10:42:16.446Z,4.70
2018-04-27T10:44:43.453Z,5.50
2018-04-27T10:47:09.695Z,11.77
2018-04-27T10:49:35.938Z,5.90
2018-04-27T10:52:02.200Z,5.90
2018-04-27T10:54:28.441Z,6.80
2018-04-27T10:56:54.719Z,5.73
2018-04-27T10:59:20.970Z,4.73
2018-04-27T11:01:47.609Z,6.13
2018-04-27T11:04:14.236Z,5.73
2018-04-27T11:06:40.495Z,6.60
2018-04-27T11:09:06.749Z,6.27
2018-04-27T11:11:33.016Z,5.37
2018-04-27T11:13:59.286Z,5.50
2018-04-27T11:16:25.537Z,6.27
2018-04-27T11:18:51.788Z,4.80
2018-04-27T11:21:18.792Z,6.33
2018-04-27T11:23:45.068Z,5.40
2018-04-27T11:26:11.336Z,6.30
2018-04-27T11:28:37.944Z,6.33
2018-04-27T11:31:04.183Z,5.97
2018-04-27T11:33:30.429Z,7.90
2018-04-27T11:35:57.085Z,5.73
2018-04-27T11:38:23.314Z,7.43
2018-04-27T11:40:49.543Z,5.93
2018-04-27T11:43:15.861Z,6.03
2018-04-27T11:45:42.084Z,5.57
2018-04-27T11:48:08.673Z,6.40
2018-04-27T11:50:34.929Z,5.80
2018-04-27T11:53:01.159Z,6.77
2018-04-27T11:55:27.460Z,7.30
2018-04-27T11:57:53.718Z,5.30
2018-04-27T12:00:20.039Z,5.97
2018-04-27T12:02:46.299Z,5.00
2018-04-27T12:05:12.558Z,5.90
2018-04-27T12:07:38.902Z,6.07
2018-04-27T12:10:05.235Z,5.30
2018-04-27T12:12:31.495Z,6.37
2018-04-27T12:14:57.699Z,4.73
2018-04-27T12:17:23.976Z,7.50
2018-04-27T12:19:50.240Z,5.20
2018-04-27T12:22:16.512Z,4.53
2018-04-27T12:24:43.164Z,5.40
2018-04-27T12:27:09.371Z,5.97
2018-04-27T12:29:35.599Z,6.13
2018-04-27T12:32:01.902Z,5.20
2018-04-27T12:34:28.203Z,8.83
2018-04-27T12:36:54.446Z,4.80
2018-04-27T12:39:20.733Z,5.30
2018-04-27T12:41:46.969Z,6.77
2018-04-27T12:44:13.222Z,5.50
2018-04-27T12:46:39.567Z,6.13
2018-04-27T12:49:05.890Z,5.20
2018-04-27T12:51:32.864Z,5.43
2018-04-27T12:53:59.140Z,5.43
2018-04-27T12:56:25.399Z,6.40
2018-04-27T12:58:51.652Z,5.33
2018-04-27T13:01:17.908Z,5.23
2018-04-27T13:03:44.549Z,4.73
2018-04-27T13:06:11.165Z,4.33
2018-04-27T13:08:37.709Z,5.27
2018-04-27T13:11:03.978Z,5.23
2018-04-27T13:13:30.902Z,4.63
2018-04-27T13:15:57.516Z,5.00
2018-04-27T13:18:23.842Z,6.13
2018-04-27T13:20:50.046Z,5.20
2018-04-27T13:23:16.256Z,7.00
2018-04-27T13:25:42.512Z,4.87
2018-04-27T13:28:08.752Z,3.77
2018-04-27T13:30:35.416Z,4.07
2018-04-27T13:33:01.700Z,4.00
2018-04-27T13:35:27.952Z,3.60
2018-04-27T13:37:54.166Z,4.00
2018-04-27T13:40:20.489Z,5.13
2018-04-27T13:42:46.749Z,4.17
2018-04-27T13:45:12.961Z,6.70
2018-04-27T13:47:39.262Z,4.03
2018-04-27T13:50:05.476Z,4.73
2018-04-27T13:52:31.773Z,4.57
2018-04-27T13:54:58.417Z,3.87
2018-04-27T13:57:25.116Z,4.20
2018-04-27T13:59:51.321Z,4.00
2018-04-27T14:02:17.600Z,4.73
2018-04-27T14:04:43.821Z,6.20
2018-04-27T14:07:10.976Z,3.67
2018-04-27T14:09:37.732Z,6.77
2018-04-27T14:12:04.009Z,4.40
2018-04-27T14:14:30.258Z,3.10
2018-04-27T14:16:56.526Z,2.93
2018-04-27T14:19:22.772Z,4.13
2018-04-27T14:21:49.003Z,3.20
2018-04-27T14:24:15.293Z,5.37
2018-04-27T14:26:41.560Z,4.47
2018-04-27T14:29:07.813Z,3.80
2018-04-27T14:31:34.014Z,3.27
2018-04-27T14:34:00.246Z,3.50
2018-04-27T14:36:26.524Z,3.43
2018-04-27T14:38:52.747Z,3.60
2018-04-27T14:41:18.988Z,6.20
2018-04-27T14:43:45.593Z,3.17
2018-04-27T14:46:11.823Z,3.33
2018-04-27T14:48:38.067Z,4.60
2018-04-27T14:51:04.329Z,2.70
2018-04-27T14:53:30.559Z,3.27
2018-04-27T14:55:56.868Z,4.87
2018-04-27T14:58:23.185Z,2.77
2018-04-27T15:00:49.434Z,3.37
2018-04-27T15:03:16.102Z,3.07
2018-04-27T15:05:42.491Z,3.20
2018-04-27T15:08:09.111Z,3.00
2018-04-27T15:10:35.428Z,2.77
2018-04-27T15:13:01.663Z,3.73
2018-04-27T15:15:28.628Z,5.17
2018-04-27T15:17:54.876Z,2.67
2018-04-27T15:20:21.498Z,2.93
2018-04-27T15:22:54.629Z,3.97
2018-04-27T15:25:20.881Z,5.63
2018-04-27T15:27:47.167Z,2.80
2018-04-27T15:30:13.819Z,4.03
2018-04-27T15:32:40.102Z,3.00
2018-04-27T15:35:06.360Z,3.30
2018-04-27T15:37:33.003Z,3.53
2018-04-27T15:39:59.331Z,3.53
2018-04-27T15:42:25.601Z,2.70
2018-04-27T15:44:51.832Z,2.63
2018-04-27T15:47:18.126Z,7.43
2018-04-27T15:49:44.388Z,2.43
2018-04-27T15:52:10.694Z,3.23
2018-04-27T15:54:36.933Z,2.90
2018-04-27T15:57:03.174Z,3.23
2018-04-27T15:59:29.382Z,2.50
2018-04-27T16:01:55.691Z,2.37
2018-04-27T16:04:22.925Z,2.70
2018-04-27T16:06:49.228Z,2.63
2018-04-27T16:09:15.592Z,2.80
2018-04-27T16:11:41.868Z,2.73
2018-04-27T16:14:08.880Z,3.53
2018-04-27T16:16:35.550Z,2.43
2018-04-27T16:19:01.848Z,3.53
2018-04-27T16:21:28.450Z,4.00
2018-04-27T16:23:54.725Z,2.57
2018-04-27T16:26:22.959Z,4.67
2018-04-27T16:28:50.102Z,2.87
2018-04-27T16:31:16.405Z,2.33
2018-04-27T16:33:43.308Z,7.17
2018-04-27T16:36:09.545Z,3.93
2018-04-27T16:38:35.847Z,3.00
2018-04-27T16:41:02.075Z,2.60
2018-04-27T16:43:28.327Z,2.73
2018-04-27T16:45:54.579Z,2.00
2018-04-27T16:48:20.818Z,2.57
2018-04-27T16:50:47.074Z,4.90
2018-04-27T16:53:13.292Z,4.17
2018-04-27T16:55:39.549Z,4.33
2018-04-27T16:58:06.132Z,3.33
2018-04-27T17:00:32.398Z,2.80
2018-04-27T17:02:58.653Z,3.23
2018-04-27T17:05:25.381Z,2.70
2018-04-27T17:07:51.668Z,2.50
2018-04-27T17:10:17.939Z,2.70
2018-04-27T17:12:44.177Z,4.53
2018-04-27T17:15:10.782Z,2.67
2018-04-27T17:17:37.018Z,3.20
2018-04-27T17:20:03.307Z,2.70
2018-04-27T17:22:29.546Z,2.30
2018-04-27T17:24:55.797Z,6.37
2018-04-27T17:27:22.097Z,3.43
2018-04-27T17:29:49.207Z,4.43
2018-04-27T17:32:15.461Z,2.60
2018-04-27T17:34:41.751Z,5.17
2018-04-27T17:37:08.035Z,3.70
2018-04-27T17:39:34.335Z,2.40
2018-04-27T17:42:00.995Z,12.53
2018-04-27T17:44:27.960Z,4.00
2018-04-27T17:46:54.164Z,2.43
2018-04-27T17:49:20.639Z,2.93
2018-04-27T17:51:46.874Z,2.57
2018-04-27T17:54:13.116Z,3.37
2018-04-27T17:56:39.363Z,2.57
2018-04-27T17:59:05.585Z,3.00
2018-04-27T18:01:32.228Z,2.50
2018-04-27T18:03:58.843Z,2.50
2018-04-27T18:06:26.054Z,2.63
2018-04-27T18:08:52.300Z,4.20
2018-04-27T18:11:18.577Z,2.73
2018-04-27T18:13:45.171Z,2.20
2018-04-27T18:16:11.489Z,2.77
2018-04-27T18:18:37.797Z,2.50
2018-04-27T18:21:04.096Z,3.47
2018-04-27T18:23:30.741Z,2.30
2018-04-27T18:25:57.401Z,3.10
2018-04-27T18:28:23.691Z,3.30
2018-04-27T18:30:50.373Z,5.87
2018-04-27T18:33:16.614Z,3.63
2018-04-27T18:35:42.906Z,3.70
2018-04-27T18:38:09.572Z,7.97
2018-04-27T18:40:35.860Z,5.77
2018-04-27T18:43:02.155Z,6.70
2018-04-27T18:45:28.438Z,7.43
2018-04-27T18:47:54.709Z,7.90
2018-04-27T18:50:20.955Z,8.33
2018-04-27T18:52:47.237Z,7.80
2018-04-27T18:55:13.500Z,10.63
2018-04-27T18:57:39.769Z,9.77
2018-04-27T19:00:06.440Z,8.40
2018-04-27T19:02:32.710Z,8.03
2018-04-27T19:04:59.030Z,8.67
2018-04-27T19:07:26.129Z,7.07
2018-04-27T19:09:52.468Z,7.50
2018-04-27T19:12:18.837Z,8.20
2018-04-27T19:14:45.167Z,12.80
2018-04-27T19:17:13.510Z,7.30
2018-04-27T19:19:39.807Z,6.90
2018-04-27T19:22:06.055Z,6.90
2018-04-27T19:24:32.331Z,6.57
2018-04-27T19:26:58.650Z,8.67
2018-04-27T19:29:24.935Z,7.47
2018-04-27T19:31:51.221Z,7.90
2018-04-27T19:34:17.478Z,7.63
2018-04-27T19:36:43.781Z,6.07
2018-04-27T19:39:10.068Z,7.13
2018-04-27T19:41:36.336Z,6.57
2018-04-27T19:44:02.601Z,5.93
2018-04-27T19:46:29.220Z,6.63
2018-04-27T19:48:55.495Z,5.87
2018-04-27T19:51:21.774Z,9.20
2018-04-27T19:53:48.065Z,6.70
2018-04-27T19:56:14.396Z,6.67
2018-04-27T19:58:40.666Z,6.83
2018-04-27T20:01:06.959Z,7.43
2018-04-27T20:03:33.205Z,7.70
2018-04-27T20:05:59.477Z,6.93
2018-04-27T20:08:25.863Z,6.77
2018-04-27T20:10:53.335Z,11.20
2018-04-27T20:13:19.629Z,9.40
2018-04-27T20:15:47.802Z,8.07
2018-04-27T20:18:14.123Z,6.60
2018-04-27T20:20:40.825Z,6.80
2018-04-27T20:23:07.129Z,7.47
2018-04-27T20:25:33.403Z,7.00
2018-04-27T20:28:00.027Z,8.90
2018-04-27T20:30:26.739Z,7.37
2018-04-27T20:32:52.975Z,6.83
2018-04-27T20:35:19.336Z,8.20
2018-04-27T20:37:48.709Z,6.33
2018-04-27T20:40:15.829Z,8.40
2018-04-27T20:42:42.237Z,7.17
2018-04-27T20:45:08.521Z,6.90
2018-04-27T20:47:34.791Z,7.63
2018-04-27T20:50:01.156Z,8.83
2018-04-27T20:52:36.125Z,7.60
2018-04-27T20:55:18.295Z,7.50
2018-04-27T20:57:44.655Z,7.80
2018-04-27T21:00:10.943Z,7.20
2018-04-27T21:02:37.196Z,7.13
2018-04-27T21:05:04.143Z,6.50
2018-04-27T21:07:30.408Z,7.80
2018-04-27T21:09:57.072Z,7.53
2018-04-27T21:12:27.182Z,6.93
2018-04-27T21:14:53.448Z,9.63
2018-04-27T21:17:19.797Z,7.03
2018-04-27T21:19:46.083Z,7.60
2018-04-27T21:22:12.365Z,10.53
2018-04-27T21:24:38.654Z,9.00
2018-04-27T21:27:04.925Z,8.20
2018-04-27T21:29:33.152Z,8.50
2018-04-27T21:31:59.425Z,8.47
2018-04-27T21:34:25.687Z,11.07
2018-04-27T21:36:52.007Z,7.53
2018-04-27T21:39:18.299Z,9.30
2018-04-27T21:41:45.570Z,8.67
2018-04-27T21:44:13.984Z,7.83
2018-04-27T21:46:40.256Z,7.77
2018-04-27T21:49:08.440Z,8.60
2018-04-27T21:51:36.512Z,10.77
2018-04-27T21:54:08.434Z,8.87
2018-04-27T21:56:34.695Z,8.83
2018-04-27T21:59:00.934Z,8.33
2018-04-27T22:01:27.194Z,7.40
2018-04-27T22:03:59.641Z,7.23
2018-04-27T22:06:26.288Z,9.00
2018-04-27T22:08:53.802Z,7.93
2018-04-27T22:24:43.584Z,7.23
2018-04-27T22:27:09.831Z,7.00
2018-04-27T22:29:36.085Z,7.40
2018-04-27T22:32:05.745Z,7.63
2018-04-27T22:34:36.898Z,7.57
2018-04-27T22:37:03.219Z,7.13
2018-04-27T22:39:31.290Z,7.50
2018-04-27T22:42:16.192Z,7.47
2018-04-27T22:44:47.275Z,7.50
2018-04-27T22:47:14.596Z,10.77
2018-04-27T22:49:41.227Z,8.73
2018-04-27T22:52:07.505Z,8.90
2018-04-27T22:54:49.578Z,7.67
2018-04-27T22:57:24.795Z,7.40
2018-04-27T22:59:51.401Z,6.33
2018-04-27T23:02:18.537Z,7.27
2018-04-27T23:04:44.769Z,7.00
2018-04-27T23:07:11.028Z,8.43
2018-04-27T23:09:37.257Z,7.50
2018-04-27T23:12:04.334Z,8.50
2018-04-27T23:14:36.376Z,10.90
2018-04-27T23:17:08.547Z,8.63
2018-04-27T23:19:35.946Z,7.43
2018-04-27T23:22:23.263Z,7.03
2018-04-27T23:24:49.504Z,7.73
2018-04-27T23:27:15.765Z,7.27
2018-04-27T23:29:42.014Z,7.70
2018-04-27T23:32:08.633Z,7.53
2018-04-27T23:34:34.890Z,7.83
2018-04-27T23:37:01.147Z,8.10
2018-04-27T23:39:27.400Z,7.27
2018-04-27T23:41:54.522Z,7.37
2018-04-27T23:44:20.743Z,7.37
2018-04-27T23:46:47.019Z,9.50
2018-04-27T23:49:13.973Z,7.05
2018-04-27T23:51:40.592Z,7.10
2018-04-27T23:54:06.837Z,6.72
2018-04-27T23:56:33.092Z,7.05
2018-04-27T23:58:59.324Z,6.93
